Time;durP1;ratioP1;P1;durP2;ratioP2;P2;SDS_P1;SDS_P2;PMS_P1;PMS_P2;Temp;Humidity;BMP_temperature;BMP_pressure;BME280_temperature;BME280_humidity;BME280_pressure;Samples;Min_cycle;Max_cycle;Signal;HPM_P1;HPM_P2
2021/08/23 00:00:15;;;;;;;16.08;13.85;;;;;;;16.92;100.00;100829.34;2616190;36;20068;-56
2021/08/23 00:02:42;;;;;;;17.33;14.32;;;;;;;16.89;100.00;100824.13;2616386;36;20418;-55
2021/08/23 00:05:11;;;;;;;17.30;14.50;;;;;;;16.84;100.00;100821.53;2616084;31;20065;-59
2021/08/23 00:07:38;;;;;;;20.67;16.13;;;;;;;16.90;100.00;100821.53;2615335;36;20039;-61
2021/08/23 00:10:07;;;;;;;17.73;15.82;;;;;;;17.07;100.00;100820.72;2615437;36;20034;-57
2021/08/23 00:12:35;;;;;;;20.33;16.05;;;;;;;17.13;100.00;100831.06;2617682;31;20026;-59
2021/08/23 00:15:03;;;;;;;20.30;16.50;;;;;;;16.86;100.00;100822.41;2617531;31;20030;-55
2021/08/23 00:17:31;;;;;;;18.27;16.35;;;;;;;17.05;100.00;100824.19;2616552;36;20030;-55
2021/08/23 00:19:58;;;;;;;20.42;17.17;;;;;;;17.11;100.00;100818.13;2616488;36;20030;-57
2021/08/23 00:22:32;;;;;;;18.13;15.52;;;;;;;17.01;100.00;100814.69;2616093;31;20030;-51
2021/08/23 00:25:00;;;;;;;17.45;15.70;;;;;;;17.15;100.00;100814.69;2615926;36;20578;-54
2021/08/23 00:27:29;;;;;;;20.83;17.80;;;;;;;17.12;100.00;100814.69;2617560;31;20035;-53
2021/08/23 00:29:56;;;;;;;18.67;16.77;;;;;;;17.17;100.00;100806.94;2615472;36;20031;-59
2021/08/23 00:32:23;;;;;;;21.42;18.05;;;;;;;17.10;100.00;100808.66;2616515;31;20022;-53
2021/08/23 00:34:51;;;;;;;22.48;19.10;;;;;;;17.11;100.00;100809.53;2615918;36;20039;-57
2021/08/23 00:37:18;;;;;;;22.23;19.10;;;;;;;17.09;100.00;100801.72;2615953;36;20026;-53
2021/08/23 00:39:45;;;;;;;24.27;19.58;;;;;;;17.13;100.00;100798.28;2615838;36;20042;-55
2021/08/23 00:42:12;;;;;;;24.33;20.15;;;;;;;17.16;100.00;100792.28;2616665;31;20034;-59
2021/08/23 00:44:41;;;;;;;25.40;21.73;;;;;;;17.01;100.00;100803.47;2615934;36;20038;-58
2021/08/23 00:47:09;;;;;;;23.73;19.38;;;;;;;17.19;100.00;100792.25;2616124;31;20045;-58
2021/08/23 00:49:36;;;;;;;24.65;22.00;;;;;;;17.18;100.00;100787.94;2616124;31;20610;-53
2021/08/23 00:52:09;;;;;;;25.08;21.45;;;;;;;17.13;100.00;100792.25;2615886;36;20061;-55
2021/08/23 00:54:37;;;;;;;28.92;24.08;;;;;;;17.15;100.00;100785.38;2615983;36;20042;-54
2021/08/23 00:57:05;;;;;;;31.73;27.08;;;;;;;17.12;100.00;100786.22;2615467;36;20034;-54
2021/08/23 00:59:36;;;;;;;32.38;26.73;;;;;;;17.10;100.00;100794.84;2616590;31;20067;-59
2021/08/23 01:02:18;;;;;;;34.42;27.00;;;;;;;17.16;100.00;100792.28;2616063;31;20105;-59
2021/08/23 01:04:57;;;;;;;30.13;25.92;;;;;;;17.28;100.00;100798.28;2616889;31;20030;-56
2021/08/23 01:07:30;;;;;;;30.17;26.58;;;;;;;17.15;100.00;100800.91;2579218;36;2004313;-59
2021/08/23 01:10:06;;;;;;;32.03;27.70;;;;;;;17.24;100.00;100799.16;2616942;31;20038;-56
2021/08/23 01:12:34;;;;;;;32.10;27.85;;;;;;;17.26;100.00;100804.34;2617204;31;20057;-59
2021/08/23 01:15:01;;;;;;;33.83;28.65;;;;;;;17.17;100.00;100801.75;2616133;31;20038;-59
2021/08/23 01:17:28;;;;;;;37.45;30.45;;;;;;;17.05;100.00;100807.75;2615213;31;20022;-57
2021/08/23 01:19:59;;;;;;;38.10;30.08;;;;;;;17.06;100.00;100809.50;2615343;31;20030;-59
2021/08/23 01:22:30;;;;;;;31.85;28.38;;;;;;;17.26;100.00;100799.16;2615212;31;20034;-57
2021/08/23 01:25:01;;;;;;;34.40;29.58;;;;;;;17.12;100.00;100799.16;2615608;31;20049;-54
2021/08/23 01:27:33;;;;;;;33.83;29.30;;;;;;;17.27;100.00;100796.56;2614637;31;20596;-53
2021/08/23 01:30:12;;;;;;;33.63;29.35;;;;;;;17.13;100.00;100800.88;2615017;31;20042;-56
2021/08/23 01:32:40;;;;;;;33.20;29.30;;;;;;;17.29;100.00;100799.16;2615147;31;20034;-59
2021/08/23 01:35:08;;;;;;;37.13;28.77;;;;;;;17.34;100.00;100792.28;2615005;36;20023;-60
2021/08/23 01:37:35;;;;;;;33.03;29.50;;;;;;;17.28;100.00;100800.00;2615105;36;20458;-56
2021/08/23 01:40:07;;;;;;;34.55;29.35;;;;;;;17.10;100.00;100793.13;2614952;36;20041;-58
2021/08/23 01:42:34;;;;;;;34.80;30.92;;;;;;;17.08;100.00;100792.25;2615630;36;20030;-57
2021/08/23 01:45:02;;;;;;;37.35;31.23;;;;;;;17.09;100.00;100788.78;2615567;36;20041;-55
2021/08/23 01:47:29;;;;;;;34.20;29.38;;;;;;;17.35;100.00;100786.22;2616059;31;20038;-55
2021/08/23 01:49:56;;;;;;;33.28;29.13;;;;;;;17.14;100.00;100789.66;2615585;31;20038;-54
2021/08/23 01:52:25;;;;;;;34.10;30.38;;;;;;;17.10;100.00;100795.72;2615242;36;20038;-61
2021/08/23 01:54:52;;;;;;;36.20;30.85;;;;;;;17.16;100.00;100787.94;2615770;31;20053;-61
2021/08/23 01:57:20;;;;;;;37.45;30.70;;;;;;;17.22;100.00;100781.91;2615404;36;20030;-59
2021/08/23 01:59:48;;;;;;;34.22;30.50;;;;;;;17.20;100.00;100783.66;2615384;36;20038;-60
2021/08/23 02:02:15;;;;;;;33.15;29.60;;;;;;;17.32;100.00;100786.22;2615299;36;20045;-54
2021/08/23 02:04:42;;;;;;;35.55;30.95;;;;;;;17.25;100.00;100787.09;2615789;31;20117;-59
2021/08/23 02:07:10;;;;;;;35.28;30.52;;;;;;;17.33;100.00;100787.94;2615214;36;20064;-58
2021/08/23 02:09:37;;;;;;;36.28;30.77;;;;;;;17.39;100.00;100794.84;2615633;31;20073;-61
2021/08/23 02:12:04;;;;;;;35.78;31.02;;;;;;;17.20;100.00;100794.00;2615672;31;20069;-57
2021/08/23 02:14:31;;;;;;;32.22;28.73;;;;;;;17.41;100.00;100801.75;2616226;31;20137;-60
2021/08/23 02:16:58;;;;;;;35.30;29.02;;;;;;;17.33;100.00;100794.84;2615292;36;20057;-56
2021/08/23 02:19:25;;;;;;;33.35;29.30;;;;;;;17.27;100.00;100801.75;2615648;31;20586;-59
2021/08/23 02:21:55;;;;;;;33.40;29.80;;;;;;;17.28;100.00;100798.28;2615608;31;20042;-55
2021/08/23 02:24:23;;;;;;;36.00;31.02;;;;;;;17.14;100.00;100807.78;2615544;31;20030;-53
2021/08/23 02:26:51;;;;;;;35.13;30.77;;;;;;;17.17;100.00;100809.50;2615219;36;20034;-58
2021/08/23 02:29:18;;;;;;;34.80;27.92;;;;;;;17.44;100.00;100806.06;2615212;36;20042;-58
2021/08/23 02:31:45;;;;;;;32.40;29.02;;;;;;;17.40;100.00;100805.19;2615549;31;20023;-55
2021/08/23 02:34:12;;;;;;;34.67;29.95;;;;;;;17.24;100.00;100811.22;2615043;36;20542;-55
2021/08/23 02:36:39;;;;;;;31.70;28.20;;;;;;;17.17;100.00;100810.38;2615193;36;20034;-54
2021/08/23 02:39:07;;;;;;;31.55;28.13;;;;;;;17.00;100.00;100807.75;2615134;36;20034;-56
2021/08/23 02:41:34;;;;;;;33.05;29.17;;;;;;;17.25;100.00;100808.66;2615048;36;20057;-58
2021/08/23 02:44:02;;;;;;;30.40;27.10;;;;;;;17.39;100.00;100805.22;2615201;31;20146;-55
2021/08/23 02:46:29;;;;;;;32.55;28.88;;;;;;;17.22;100.00;100800.03;2615248;31;20586;-58
2021/08/23 02:48:56;;;;;;;30.33;26.58;;;;;;;17.25;100.00;100803.47;2614836;36;20030;-56
2021/08/23 02:51:23;;;;;;;28.38;25.42;;;;;;;17.43;100.00;100806.94;2615005;36;20030;-57
2021/08/23 02:53:50;;;;;;;29.85;26.70;;;;;;;17.37;100.00;100799.16;2615126;31;20038;-61
2021/08/23 02:56:17;;;;;;;29.13;25.55;;;;;;;17.39;100.00;100800.03;2615663;31;20129;-57
2021/08/23 02:58:44;;;;;;;26.85;24.08;;;;;;;17.44;100.00;100793.13;2614844;31;20034;-54
2021/08/23 03:01:11;;;;;;;27.92;24.90;;;;;;;17.31;100.00;100798.28;2614609;31;20069;-57
2021/08/23 03:03:40;;;;;;;27.77;24.88;;;;;;;17.31;100.00;100802.63;2614993;31;20078;-55
2021/08/23 03:06:07;;;;;;;27.15;24.08;;;;;;;17.24;100.00;100798.28;2615090;36;20586;-60
2021/08/23 03:08:34;;;;;;;26.17;23.30;;;;;;;17.44;100.00;100800.88;2616241;31;20030;-60
2021/08/23 03:11:09;;;;;;;24.33;21.77;;;;;;;17.41;100.00;100799.16;2615332;36;20431;-58
2021/08/23 03:13:37;;;;;;;23.52;21.08;;;;;;;17.54;100.00;100803.47;2615466;31;20030;-56
2021/08/23 03:16:05;;;;;;;25.95;22.92;;;;;;;17.20;100.00;100794.00;2615611;31;20030;-56
2021/08/23 03:18:32;;;;;;;24.67;22.10;;;;;;;17.20;100.00;100788.81;2614787;31;20030;-58
2021/08/23 03:20:59;;;;;;;24.35;21.90;;;;;;;17.34;100.00;100797.44;2616330;31;20034;-59
2021/08/23 03:23:27;;;;;;;26.02;23.27;;;;;;;17.41;100.00;100793.97;2615780;31;20050;-57
2021/08/23 03:25:54;;;;;;;27.95;24.15;;;;;;;17.16;100.00;100798.31;2614753;36;20061;-58
2021/08/23 03:28:22;;;;;;;25.65;22.92;;;;;;;17.27;100.00;100801.75;2614729;36;20035;-58
2021/08/23 03:30:49;;;;;;;26.48;23.63;;;;;;;17.26;100.00;100799.16;2615762;31;20018;-59
2021/08/23 03:33:17;;;;;;;29.02;25.75;;;;;;;17.09;100.00;100816.41;2615280;31;20034;-57
2021/08/23 03:35:44;;;;;;;24.20;21.70;;;;;;;17.14;100.00;100807.78;2614444;36;20035;-57
2021/08/23 03:38:12;;;;;;;23.27;19.42;;;;;;;16.90;100.00;100808.63;2615236;31;20420;-59
2021/08/23 03:40:39;;;;;;;21.98;16.48;;;;;;;16.79;100.00;100803.44;2614745;36;20034;-59
2021/08/23 03:43:06;;;;;;;20.63;17.40;;;;;;;16.77;100.00;100815.47;2613792;36;20043;-57
2021/08/23 03:45:34;;;;;;;20.02;17.73;;;;;;;16.79;100.00;100811.19;2615718;31;20030;-59
2021/08/23 03:48:02;;;;;;;18.10;16.17;;;;;;;16.60;100.00;100818.88;2614779;31;20042;-59
2021/08/23 03:50:34;;;;;;;18.17;16.08;;;;;;;16.72;100.00;100824.09;2618093;36;20436;-58
2021/08/23 03:53:11;;;;;;;19.13;16.95;;;;;;;16.58;100.00;100818.00;2614895;36;20438;-58
2021/08/23 03:55:41;;;;;;;16.45;14.85;;;;;;;16.43;100.00;100822.25;2614179;31;20031;-58
2021/08/23 03:58:10;;;;;;;15.60;14.02;;;;;;;16.42;100.00;100830.88;2614636;31;20147;-56
2021/08/23 04:00:40;;;;;;;10.98;9.88;;;;;;;16.52;100.00;100819.69;2614651;31;20502;-60
2021/08/23 04:03:08;;;;;;;8.13;7.40;;;;;;;16.16;100.00;100827.28;2615491;31;20058;-59
2021/08/23 04:05:37;;;;;;;8.00;5.95;;;;;;;16.02;100.00;100827.22;2614673;36;20037;-60
2021/08/23 04:08:11;;;;;;;7.80;7.13;;;;;;;15.99;100.00;100830.66;2614604;31;20030;-59
2021/08/23 04:10:50;;;;;;;6.53;5.90;;;;;;;16.04;100.00;100841.03;2614659;31;20030;-59
2021/08/23 04:13:23;;;;;;;6.28;4.88;;;;;;;16.04;100.00;100844.47;2615093;31;20034;-58
2021/08/23 04:15:51;;;;;;;8.63;5.28;;;;;;;16.01;100.00;100841.84;2579017;31;2004391;-58
2021/08/23 04:18:19;;;;;;;5.90;5.25;;;;;;;15.96;100.00;100846.13;2615038;31;20030;-58
2021/08/23 04:20:47;;;;;;;6.00;5.50;;;;;;;16.02;100.00;100840.13;2615024;31;20038;-56
2021/08/23 04:23:15;;;;;;;6.47;5.88;;;;;;;15.78;100.00;100852.03;2614685;36;20034;-57
2021/08/23 04:25:43;;;;;;;8.27;7.03;;;;;;;15.78;100.00;100854.63;2614399;31;20049;-59
2021/08/23 04:28:14;;;;;;;9.05;7.57;;;;;;;15.83;100.00;100862.41;2614726;31;20435;-59
2021/08/23 04:30:41;;;;;;;7.82;6.70;;;;;;;15.86;100.00;100861.56;2615382;31;20058;-60
2021/08/23 04:33:12;;;;;;;6.78;6.07;;;;;;;15.83;100.00;100861.53;2614491;36;20053;-60
2021/08/23 04:35:43;;;;;;;7.88;5.60;;;;;;;15.84;100.00;100861.53;2614594;31;20038;-60
2021/08/23 04:38:15;;;;;;;7.05;6.20;;;;;;;15.47;100.00;100857.78;2614480;36;20030;-60
2021/08/23 04:40:49;;;;;;;7.35;6.65;;;;;;;15.53;100.00;100869.03;2613784;36;20042;-60
2021/08/23 04:43:17;;;;;;;8.18;6.43;;;;;;;15.53;100.00;100871.63;2614425;36;20038;-58
2021/08/23 04:45:45;;;;;;;8.38;6.78;;;;;;;15.60;100.00;100859.63;2615788;31;20086;-59
2021/08/23 04:48:18;;;;;;;6.10;5.55;;;;;;;15.49;100.00;100864.69;2614525;31;20038;-58
2021/08/23 04:50:51;;;;;;;7.70;6.90;;;;;;;15.59;100.00;100865.63;2614921;31;20101;-58
2021/08/23 04:53:20;;;;;;;7.20;6.60;;;;;;;15.50;100.00;100869.00;2614647;31;20061;-60
2021/08/23 04:55:48;;;;;;;8.25;7.55;;;;;;;15.56;100.00;100877.66;2615373;36;20029;-59
2021/08/23 04:58:25;;;;;;;8.05;7.25;;;;;;;15.43;100.00;100868.94;2616956;36;20947;-58
2021/08/23 05:00:54;;;;;;;;;;;;;;;15.51;100.00;100872.44;2579966;36;2004414;-61
2021/08/23 05:03:22;;;;;;;8.30;7.43;;;;;;;15.55;100.00;100881.94;2615150;31;19970;-58
2021/08/23 05:05:54;;;;;;;9.35;8.45;;;;;;;15.49;100.00;100885.34;2614606;36;20122;-59
2021/08/23 05:08:23;;;;;;;12.43;11.13;;;;;;;15.20;100.00;100869.59;2578663;36;2004619;-59
2021/08/23 05:10:51;;;;;;;13.07;10.25;;;;;;;15.54;100.00;100886.25;2615307;31;20027;-58
2021/08/23 05:13:30;;;;;;;15.50;12.13;;;;;;;15.23;100.00;100895.41;2634414;36;20042;-61
2021/08/23 05:16:04;;;;;;;15.98;13.15;;;;;;;15.38;100.00;100886.94;2600581;36;2004154;-59
2021/08/23 05:18:31;;;;;;;15.10;12.90;;;;;;;15.32;100.00;100899.81;2615171;36;20031;-56
2021/08/23 05:21:03;;;;;;;18.98;13.35;;;;;;;15.36;100.00;100900.72;2616344;31;20030;-59
2021/08/23 05:23:31;;;;;;;14.02;11.98;;;;;;;15.49;100.00;100898.25;2615871;31;20030;-57
2021/08/23 05:25:58;;;;;;;12.93;11.15;;;;;;;15.58;100.00;100902.63;2615466;31;20156;-58
2021/08/23 05:28:30;;;;;;;14.65;10.85;;;;;;;15.60;100.00;100908.66;2615178;31;20035;-58
2021/08/23 05:30:57;;;;;;;12.00;10.75;;;;;;;15.47;100.00;100905.09;2615474;31;20042;-58
2021/08/23 05:33:30;;;;;;;13.60;11.05;;;;;;;15.42;100.00;100906.78;2616098;31;20111;-58
2021/08/23 05:35:57;;;;;;;12.75;10.65;;;;;;;15.48;100.00;100905.97;2614406;36;20661;-59
2021/08/23 05:38:25;;;;;;;12.32;11.02;;;;;;;15.35;100.00;100909.31;2616059;31;20454;-58
2021/08/23 05:40:52;;;;;;;13.73;11.35;;;;;;;15.31;100.00;100916.16;2615394;36;20038;-58
2021/08/23 05:43:25;;;;;;;12.23;10.10;;;;;;;15.00;100.00;100910.66;2615520;31;20039;-59
2021/08/23 05:45:57;;;;;;;13.48;10.82;;;;;;;15.31;100.00;100913.56;2579075;36;2004368;-57
2021/08/23 05:48:29;;;;;;;11.57;10.20;;;;;;;15.28;100.00;100908.38;2615326;36;20038;-56
2021/08/23 05:50:58;;;;;;;12.82;9.60;;;;;;;15.16;100.00;100914.28;2615753;31;20026;-56
2021/08/23 05:53:25;;;;;;;11.60;9.23;;;;;;;15.34;100.00;100920.44;2615715;31;20041;-56
2021/08/23 05:55:52;;;;;;;15.57;8.70;;;;;;;15.35;100.00;100923.06;2615428;36;20034;-58
2021/08/23 05:58:20;;;;;;;9.35;7.93;;;;;;;15.20;100.00;100917.75;2615443;36;20030;-59
2021/08/23 06:00:47;;;;;;;9.35;8.25;;;;;;;15.03;100.00;100920.16;2615775;31;20038;-59
2021/08/23 06:03:15;;;;;;;10.48;8.20;;;;;;;15.23;100.00;100928.09;2616076;31;20038;-58
2021/08/23 06:05:44;;;;;;;10.13;8.02;;;;;;;15.07;100.00;100926.19;2615319;36;20082;-60
2021/08/23 06:08:12;;;;;;;9.52;8.02;;;;;;;15.11;100.00;100927.97;2615188;36;20039;-59
2021/08/23 06:10:40;;;;;;;9.02;8.00;;;;;;;15.32;100.00;100935.94;2615596;31;20065;-57
2021/08/23 06:13:07;;;;;;;8.60;7.70;;;;;;;15.36;100.00;100926.50;2615007;36;20049;-58
2021/08/23 06:15:34;;;;;;;8.60;7.60;;;;;;;15.19;100.00;100942.66;2615156;36;20055;-59
2021/08/23 06:18:07;;;;;;;8.52;7.47;;;;;;;14.90;100.00;100934.63;2615433;31;20078;-56
2021/08/23 06:20:35;;;;;;;10.57;8.07;;;;;;;15.03;100.00;100933.91;2616614;31;20042;-59
2021/08/23 06:23:04;;;;;;;7.45;6.75;;;;;;;15.34;100.00;100939.38;2615150;36;20554;-58
2021/08/23 06:25:31;;;;;;;8.27;7.47;;;;;;;15.24;100.00;100937.56;2616073;31;20030;-58
2021/08/23 06:28:02;;;;;;;10.05;7.25;;;;;;;15.23;100.00;100948.75;2615551;31;20030;-57
2021/08/23 06:30:30;;;;;;;7.90;6.20;;;;;;;15.06;100.00;100942.53;2615273;36;20030;-57
2021/08/23 06:32:58;;;;;;;7.88;7.10;;;;;;;15.28;100.00;100950.50;2617005;31;20431;-57
2021/08/23 06:35:26;;;;;;;8.00;6.75;;;;;;;15.03;100.00;100945.94;2615556;31;20035;-56
2021/08/23 06:37:53;;;;;;;8.57;6.72;;;;;;;15.22;100.00;100954.75;2615531;31;20578;-58
2021/08/23 06:40:22;;;;;;;8.70;6.38;;;;;;;15.14;100.00;100954.66;2615618;36;20055;-59
2021/08/23 06:42:50;;;;;;;7.00;6.00;;;;;;;15.06;100.00;100964.00;2615719;31;20069;-60
2021/08/23 06:45:17;;;;;;;7.60;6.72;;;;;;;15.28;100.00;100959.97;2615262;36;20041;-56
2021/08/23 06:47:44;;;;;;;7.22;6.03;;;;;;;15.13;100.00;100963.25;2614741;31;20077;-60
2021/08/23 06:50:16;;;;;;;6.68;6.00;;;;;;;15.15;100.00;100969.28;2615159;36;20034;-58
2021/08/23 06:52:44;;;;;;;7.97;6.00;;;;;;;15.10;100.00;100967.50;2615261;36;20030;-60
2021/08/23 06:55:11;;;;;;;7.15;6.10;;;;;;;15.01;100.00;100963.97;2615213;31;20026;-59
2021/08/23 06:57:39;;;;;;;7.47;6.05;;;;;;;15.17;100.00;100970.19;2615791;31;20085;-59
2021/08/23 07:00:07;;;;;;;7.07;5.82;;;;;;;15.09;100.00;100974.38;2614834;36;20574;-60
2021/08/23 07:02:35;;;;;;;7.47;5.97;;;;;;;15.09;100.00;100970.94;2615043;36;20037;-60
2021/08/23 07:05:04;;;;;;;6.22;5.63;;;;;;;15.13;100.00;100978.72;2616456;31;20806;-58
2021/08/23 07:07:33;;;;;;;7.45;6.00;;;;;;;15.09;100.00;100973.50;2616631;31;20048;-58
2021/08/23 07:10:00;;;;;;;9.07;7.00;;;;;;;15.14;100.00;100970.13;2614969;36;20129;-59
2021/08/23 07:12:28;;;;;;;7.00;6.22;;;;;;;15.01;100.00;100973.41;2615103;36;20031;-57
2021/08/23 07:14:58;;;;;;;8.50;6.75;;;;;;;15.16;100.00;100971.03;2614969;36;20552;-57
2021/08/23 07:17:27;;;;;;;10.52;6.90;;;;;;;15.37;100.00;100978.13;2614783;36;20035;-57
2021/08/23 07:19:55;;;;;;;8.20;5.30;;;;;;;15.15;100.00;100971.00;2615823;31;20031;-60
2021/08/23 07:22:26;;;;;;;6.40;5.65;;;;;;;15.16;100.00;100972.72;2616815;31;20030;-57
2021/08/23 07:24:54;;;;;;;8.90;5.60;;;;;;;15.27;100.00;100973.72;2579294;36;2005761;-58
2021/08/23 07:27:23;;;;;;;6.97;6.00;;;;;;;15.29;100.00;100985.78;2615160;36;20038;-58
2021/08/23 07:29:58;;;;;;;8.07;6.13;;;;;;;14.99;100.00;100982.84;2620396;31;20046;-61
2021/08/23 07:32:25;;;;;;;6.93;6.22;;;;;;;15.25;100.00;100983.16;2585285;36;2004581;-60
2021/08/23 07:34:53;;;;;;;7.70;5.85;;;;;;;15.29;100.00;100985.78;2613962;31;20058;-59
2021/08/23 07:37:21;;;;;;;6.93;6.22;;;;;;;14.93;100.00;100987.91;2612334;36;20138;-59
2021/08/23 07:39:49;;;;;;;11.80;6.28;;;;;;;15.11;100.00;100998.47;2612156;31;20031;-57
2021/08/23 07:42:20;;;;;;;9.70;6.18;;;;;;;15.24;100.00;100996.91;2613608;31;20582;-58
2021/08/23 07:44:47;;;;;;;5.75;5.20;;;;;;;15.24;100.00;100997.75;2612125;31;20965;-59
2021/08/23 07:47:15;;;;;;;10.27;6.05;;;;;;;15.09;100.00;101001.88;2614365;31;20045;-58
2021/08/23 07:49:44;;;;;;;7.45;5.22;;;;;;;15.05;100.00;101000.97;2612669;36;21076;-59
2021/08/23 07:52:11;;;;;;;6.20;5.60;;;;;;;15.05;100.00;101005.28;2614447;31;20533;-56
2021/08/23 07:54:44;;;;;;;6.40;5.80;;;;;;;15.12;100.00;101009.69;2612617;36;20037;-59
2021/08/23 07:57:12;;;;;;;8.98;5.85;;;;;;;14.98;100.00;101012.94;2612032;31;20027;-60
2021/08/23 07:59:39;;;;;;;5.43;4.93;;;;;;;15.29;100.00;101015.88;2611569;31;20027;-57
2021/08/23 08:02:07;;;;;;;7.90;5.57;;;;;;;15.19;100.00;101024.38;2611310;36;20117;-59
2021/08/23 08:04:37;;;;;;;7.20;5.65;;;;;;;14.81;100.00;101022.16;2611138;31;20030;-59
2021/08/23 08:07:04;;;;;;;12.13;5.80;;;;;;;15.12;100.00;101017.41;2611937;36;20510;-56
2021/08/23 08:09:32;;;;;;;6.57;4.85;;;;;;;14.97;100.00;101033.53;2610592;36;20038;-61
2021/08/23 08:11:59;;;;;;;9.05;5.65;;;;;;;14.96;100.00;101036.97;2611712;31;20065;-59
2021/08/23 08:14:27;;;;;;;8.13;5.80;;;;;;;14.82;100.00;101029.03;2612446;31;20058;-60
2021/08/23 08:16:57;;;;;;;5.90;5.35;;;;;;;14.92;100.00;101027.44;2613297;31;20034;-59
2021/08/23 08:19:26;;;;;;;6.30;5.70;;;;;;;14.80;100.00;101040.19;2612585;36;20030;-58
2021/08/23 08:21:54;;;;;;;6.38;4.93;;;;;;;15.00;100.00;101038.75;2612718;36;20038;-57
2021/08/23 08:24:21;;;;;;;10.00;5.80;;;;;;;15.11;100.00;101039.75;2612087;36;20040;-57
2021/08/23 08:26:49;;;;;;;7.63;5.68;;;;;;;15.07;100.00;101040.56;2612267;31;20585;-57
2021/08/23 08:29:18;;;;;;;5.28;4.78;;;;;;;14.96;100.00;101049.88;2613523;31;20451;-58
2021/08/23 08:31:47;;;;;;;5.45;4.95;;;;;;;15.20;100.00;101052.75;2611342;31;20053;-59
2021/08/23 08:34:15;;;;;;;6.15;4.80;;;;;;;14.89;100.00;101053.22;2610605;36;20057;-57
2021/08/23 08:36:44;;;;;;;6.20;4.95;;;;;;;14.89;100.00;101053.22;2611908;36;20112;-58
2021/08/23 08:39:11;;;;;;;5.72;4.82;;;;;;;14.79;100.00;101062.53;2611968;36;20026;-56
2021/08/23 08:41:41;;;;;;;5.15;4.60;;;;;;;14.95;100.00;101064.47;2609898;31;20034;-58
2021/08/23 08:44:09;;;;;;;5.18;4.43;;;;;;;14.90;100.00;101062.69;2614467;31;20026;-59
2021/08/23 08:46:38;;;;;;;5.63;5.07;;;;;;;14.78;100.00;101060.78;2612910;31;20591;-59
2021/08/23 08:49:11;;;;;;;6.53;4.90;;;;;;;14.86;100.00;101074.66;2611365;36;20038;-59
2021/08/23 08:51:41;;;;;;;4.93;4.45;;;;;;;15.00;100.00;101072.28;2612262;36;20038;-56
2021/08/23 08:54:11;;;;;;;8.07;4.65;;;;;;;14.88;100.00;101074.66;2611878;31;20059;-58
2021/08/23 08:56:42;;;;;;;4.35;3.95;;;;;;;15.23;100.00;101081.19;2612575;36;20065;-59
2021/08/23 08:59:13;;;;;;;6.20;3.97;;;;;;;15.30;100.00;101082.16;2612572;31;20431;-57
2021/08/23 09:01:43;;;;;;;7.07;4.65;;;;;;;14.82;100.00;101082.31;2612073;36;20570;-57
2021/08/23 09:04:12;;;;;;;6.55;4.68;;;;;;;14.84;100.00;101086.69;2608720;36;20038;-57
2021/08/23 09:06:58;;;;;;;6.35;4.22;;;;;;;15.17;100.00;101088.84;2574964;31;2004395;-57
2021/08/23 09:09:27;;;;;;;5.20;4.07;;;;;;;15.21;100.00;101090.63;2610705;36;20183;-57
2021/08/23 09:12:13;;;;;;;5.32;3.92;;;;;;;15.10;100.00;101094.75;2611454;36;20030;-60
2021/08/23 09:14:53;;;;;;;7.00;4.03;;;;;;;15.24;100.00;101100.97;2611518;31;20030;-60
2021/08/23 09:17:22;;;;;;;4.15;3.75;;;;;;;15.34;100.00;101107.09;2609321;36;20342;-58
2021/08/23 09:20:07;;;;;;;5.15;3.60;;;;;;;15.38;100.00;101108.88;2611337;36;20034;-59
2021/08/23 09:22:36;;;;;;;6.85;3.22;;;;;;;15.24;100.00;101105.25;2575952;36;2004783;-56
2021/08/23 09:25:11;;;;;;;3.95;3.10;;;;;;;15.45;100.00;101121.03;2612559;36;20518;-57
2021/08/23 09:27:43;;;;;;;4.47;3.40;;;;;;;15.35;100.00;101119.19;2612184;36;20026;-55
2021/08/23 09:30:11;;;;;;;3.78;3.05;;;;;;;15.19;100.00;101100.03;2610205;31;20070;-58
2021/08/23 09:32:51;;;;;;;3.97;3.03;;;;;;;15.23;100.00;101113.84;2612087;31;20030;-57
2021/08/23 09:35:25;;;;;;;5.90;3.45;;;;;;;15.40;100.00;101114.94;2610313;36;20034;-58
2021/08/23 09:37:55;;;;;;;6.40;3.50;;;;;;;15.45;100.00;101110.72;2612918;31;20395;-57
2021/08/23 09:40:31;;;;;;;3.70;3.30;;;;;;;15.28;100.00;101120.81;2613260;31;20042;-57
2021/08/23 09:43:12;;;;;;;5.00;3.37;;;;;;;15.13;100.00;101122.31;2578524;31;2004435;-57
2021/08/23 09:45:50;;;;;;;5.43;2.90;;;;;;;15.00;100.00;101119.56;2615183;31;20102;-57
2021/08/23 09:48:18;;;;;;;6.82;3.75;;;;;;;15.30;100.00;101126.00;2614917;36;20031;-56
2021/08/23 09:50:48;;;;;;;3.03;2.60;;;;;;;15.37;100.00;101124.38;2614185;36;20042;-56
2021/08/23 09:53:22;;;;;;;3.08;2.63;;;;;;;15.28;100.00;101125.09;2614712;36;20037;-57
2021/08/23 09:55:51;;;;;;;5.20;3.35;;;;;;;15.51;100.00;101127.97;2615555;31;20031;-56
2021/08/23 09:58:18;;;;;;;3.97;2.70;;;;;;;15.16;100.00;101140.41;2614792;36;20042;-57
2021/08/23 10:00:45;;;;;;;5.47;2.90;;;;;;;15.21;100.00;101133.63;2613164;36;20034;-56
2021/08/23 10:03:22;;;;;;;3.53;2.58;;;;;;;15.41;100.00;101134.75;2613666;36;20042;-58
2021/08/23 10:06:04;;;;;;;2.63;2.25;;;;;;;15.20;100.00;101137.88;2576531;31;2004395;-58
2021/08/23 10:08:32;;;;;;;4.20;2.60;;;;;;;15.30;100.00;101133.75;2613394;36;20034;-56
2021/08/23 10:11:00;;;;;;;3.17;2.50;;;;;;;15.45;100.00;101135.66;2613842;31;20046;-57
2021/08/23 10:13:28;;;;;;;4.88;2.67;;;;;;;15.56;100.00;101141.81;2615225;36;20031;-57
2021/08/23 10:15:55;;;;;;;3.20;2.47;;;;;;;15.75;100.00;101143.78;2615140;36;20038;-56
2021/08/23 10:18:23;;;;;;;7.00;2.35;;;;;;;15.84;100.00;101142.19;2614947;36;20030;-53
2021/08/23 10:20:50;;;;;;;3.60;2.13;;;;;;;15.82;100.00;101151.63;2615478;36;20031;-56
2021/08/23 10:23:18;;;;;;;4.65;1.98;;;;;;;15.71;100.00;101154.06;2615125;31;20042;-53
2021/08/23 10:25:47;;;;;;;3.28;2.15;;;;;;;15.75;100.00;101148.09;2614715;36;20030;-53
2021/08/23 10:28:19;;;;;;;2.30;2.10;;;;;;;15.78;100.00;101158.47;2614734;36;20093;-55
2021/08/23 10:30:50;;;;;;;3.33;2.10;;;;;;;15.72;100.00;101161.00;2614942;31;20027;-55
2021/08/23 10:33:21;;;;;;;2.85;1.92;;;;;;;15.43;100.00;101156.25;2615156;31;20022;-57
2021/08/23 10:35:56;;;;;;;3.80;2.28;;;;;;;15.59;100.00;101166.81;2615083;31;20041;-56
2021/08/23 10:38:26;;;;;;;2.47;2.28;;;;;;;15.57;100.00;101161.59;2614058;36;20029;-54
2021/08/23 10:41:26;;;;;;;4.50;2.20;;;;;;;15.68;100.00;101167.81;2618240;31;20035;-54
2021/08/23 10:43:57;;;;;;;5.13;2.45;;;;;;;15.48;100.00;101175.28;2543773;31;2004760;-54
2021/08/23 10:46:30;;;;;;;3.58;2.17;;;;;;;15.52;100.00;101177.03;2613499;36;20444;-53
2021/08/23 10:49:12;;;;;;;2.58;2.38;;;;;;;15.57;100.00;101179.69;2578843;31;2004677;-52
2021/08/23 10:51:43;;;;;;;3.58;2.05;;;;;;;15.58;100.00;101178.84;2616071;31;20030;-56
2021/08/23 10:54:24;;;;;;;3.45;2.17;;;;;;;15.83;100.00;101189.50;2613101;36;20053;-54
2021/08/23 10:57:01;;;;;;;4.75;2.25;;;;;;;15.25;100.00;101189.56;2577494;31;2004389;-57
2021/08/23 10:59:49;;;;;;;4.57;1.98;;;;;;;15.55;100.00;101199.47;2615257;31;20129;-58
2021/08/23 11:02:31;;;;;;;3.10;2.00;;;;;;;15.60;100.00;101194.34;2615642;31;20031;-55
2021/08/23 11:05:13;;;;;;;7.15;2.40;;;;;;;15.45;100.00;101195.03;2578226;31;2004418;-56
2021/08/23 11:07:46;;;;;;;2.80;1.73;;;;;;;15.42;100.00;101195.84;2615270;31;20574;-54
2021/08/23 11:10:22;;;;;;;3.55;2.22;;;;;;;15.39;100.00;101197.50;2614927;31;20053;-56
2021/08/23 11:12:52;;;;;;;4.35;1.88;;;;;;;15.40;100.00;101205.28;2614807;31;20038;-54
2021/08/23 11:15:31;;;;;;;2.70;1.92;;;;;;;15.40;100.00;101196.69;2584164;31;2004567;-55
2021/08/23 11:18:04;;;;;;;2.25;1.67;;;;;;;15.43;100.00;101200.13;2614873;31;20602;-54
2021/08/23 11:20:34;;;;;;;3.35;1.92;;;;;;;15.19;100.00;101202.38;2614582;31;20038;-56